Time;durP1;ratioP1;P1;durP2;ratioP2;P2;SDS_P1;SDS_P2;PMS_P1;PMS_P2;Temp;Humidity;BMP_temperature;BMP_pressure;BME280_temperature;BME280_humidity;BME280_pressure;Samples;Min_cycle;Max_cycle;Signal;HPM_P1;HPM_P2
2022/11/19 00:02:10;;;;;;;6.37;4.80;;;0.80;99.90;;;;;;5067190;28;20486;-55
2022/11/19 00:04:40;;;;;;;6.40;4.97;;;0.80;99.90;;;;;;5064307;28;20484;-55
2022/11/19 00:07:09;;;;;;;6.43;4.80;;;0.70;99.90;;;;;;5065735;28;20545;-56
2022/11/19 00:09:37;;;;;;;8.10;5.40;;;0.70;99.90;;;;;;5066856;28;20474;-56
2022/11/19 00:15:09;;;;;;;6.27;4.80;;;0.70;99.90;;;;;;5005851;28;20532;-55
2022/11/19 00:17:38;;;;;;;6.63;4.93;;;0.60;99.90;;;;;;5009986;28;20475;-56
2022/11/19 00:20:09;;;;;;;5.87;4.90;;;0.60;99.90;;;;;;5035736;28;20515;-56
2022/11/19 00:22:37;;;;;;;6.83;5.53;;;0.80;99.90;;;;;;5062941;28;20826;-57
2022/11/19 00:25:06;;;;;;;8.07;4.97;;;0.70;99.90;;;;;;5063572;28;20977;-55
2022/11/19 00:27:35;;;;;;;7.30;5.40;;;0.70;99.90;;;;;;5064686;28;20474;-56
2022/11/19 00:30:04;;;;;;;6.47;5.10;;;0.60;99.90;;;;;;5063481;28;21466;-57
2022/11/19 00:32:47;;;;;;;6.37;4.60;;;0.70;99.90;;;;;;5067485;28;20479;-56
2022/11/19 00:35:17;;;;;;;7.90;5.10;;;0.50;99.90;;;;;;5064928;28;20505;-56
2022/11/19 00:37:46;;;;;;;6.63;4.80;;;0.50;99.90;;;;;;5066665;28;20543;-56
2022/11/19 00:40:14;;;;;;;5.03;4.53;;;0.40;99.90;;;;;;5066724;28;20486;-55
2022/11/19 00:43:45;;;;;;;6.47;4.77;;;0.40;99.90;;;;;;5067915;28;20477;-56
2022/11/19 00:45:30;;;;;;;5.47;4.60;;;0.30;99.90;;;;;;5064344;28;20462;-56
2022/11/19 00:47:58;;;;;;;5.73;4.73;;;0.20;99.90;;;;;;5064854;28;20519;-56
2022/11/19 00:50:28;;;;;;;5.37;4.00;;;0.20;99.90;;;;;;5064844;28;20470;-56
2022/11/19 00:52:56;;;;;;;5.97;4.40;;;0.10;99.90;;;;;;5067157;28;20476;-55
2022/11/19 00:55:24;;;;;;;7.50;4.20;;;0.10;99.90;;;;;;5064941;28;20494;-54
2022/11/19 00:57:52;;;;;;;5.27;4.10;;;0.10;99.90;;;;;;5067465;28;20482;-55
2022/11/19 01:00:20;;;;;;;7.50;4.80;;;0.10;99.90;;;;;;5066462;28;20469;-56
2022/11/19 01:02:48;;;;;;;7.27;5.03;;;0.00;99.90;;;;;;5066272;28;20458;-57
2022/11/19 01:05:16;;;;;;;7.43;6.20;;;0.00;99.90;;;;;;5065074;28;20481;-56
2022/11/19 01:07:46;;;;;;;7.10;5.50;;;0.10;99.90;;;;;;5067290;28;21599;-54
2022/11/19 01:10:14;;;;;;;6.20;4.80;;;0.00;99.90;;;;;;5064732;28;21042;-56
2022/11/19 01:15:24;;;;;;;6.73;4.87;;;-0.10;99.90;;;;;;5065271;28;20508;-56
2022/11/19 01:17:51;;;;;;;5.37;4.63;;;-0.10;99.90;;;;;;5065839;28;20485;-53
2022/11/19 01:20:20;;;;;;;5.93;4.97;;;-0.10;99.90;;;;;;5066854;28;20978;-56
2022/11/19 01:22:49;;;;;;;7.90;5.50;;;0.00;99.90;;;;;;5066185;28;20475;-56
2022/11/19 01:25:17;;;;;;;5.87;4.93;;;-0.10;99.90;;;;;;5062704;28;20567;-54
2022/11/19 01:27:45;;;;;;;6.07;4.90;;;-0.20;99.90;;;;;;5065121;28;20466;-55
2022/11/19 01:30:15;;;;;;;5.37;4.40;;;-0.20;99.90;;;;;;5063375;28;20473;-55
2022/11/19 01:32:43;;;;;;;6.23;5.10;;;-0.20;99.90;;;;;;5066095;28;20468;-56
2022/11/19 01:35:11;;;;;;;8.47;4.70;;;-0.20;99.90;;;;;;5064085;28;20489;-54
2022/11/19 01:37:40;;;;;;;6.97;4.90;;;-0.20;99.90;;;;;;5066464;28;20491;-56
2022/11/19 01:40:11;;;;;;;5.37;4.60;;;-0.30;99.90;;;;;;5065821;28;20469;-55
2022/11/19 01:42:49;;;;;;;5.47;4.50;;;-0.30;99.90;;;;;;5066152;28;20473;-56
2022/11/19 01:45:36;;;;;;;6.23;4.87;;;-0.30;99.90;;;;;;5064494;28;20496;-56
2022/11/19 01:48:07;;;;;;;5.60;4.20;;;-0.30;99.90;;;;;;5065406;28;20497;-56
2022/11/19 01:50:39;;;;;;;9.10;4.80;;;-0.40;99.90;;;;;;5065379;28;20888;-57
2022/11/19 01:53:08;;;;;;;6.03;4.77;;;-0.40;99.90;;;;;;5066846;28;20481;-56
2022/11/19 01:55:39;;;;;;;6.33;5.10;;;-0.30;99.90;;;;;;5063801;28;21035;-54
2022/11/19 01:58:08;;;;;;;6.83;4.93;;;-0.40;99.90;;;;;;5064622;28;20470;-56
2022/11/19 02:00:36;;;;;;;7.37;5.00;;;-0.40;99.90;;;;;;5067176;28;20478;-55
2022/11/19 02:03:04;;;;;;;6.37;4.33;;;-0.40;99.90;;;;;;5066684;28;20470;-56
2022/11/19 02:05:32;;;;;;;6.23;5.10;;;-0.50;99.90;;;;;;5065938;28;20469;-57
2022/11/19 02:08:05;;;;;;;6.97;5.47;;;-0.50;99.90;;;;;;5067088;28;20534;-55
2022/11/19 02:10:44;;;;;;;7.80;5.43;;;-0.50;99.90;;;;;;5066484;28;20531;-54
2022/11/19 02:13:24;;;;;;;8.40;5.60;;;-0.60;99.90;;;;;;5070084;28;20477;-55
2022/11/19 02:15:58;;;;;;;6.50;4.70;;;-0.60;99.90;;;;;;5069379;28;20523;-54
2022/11/19 02:18:44;;;;;;;8.03;5.30;;;-0.50;99.90;;;;;;5070041;28;20976;-54
2022/11/19 02:21:23;;;;;;;7.50;5.70;;;-0.40;99.90;;;;;;5071095;28;20488;-53
2022/11/19 02:24:36;;;;;;;7.90;5.87;;;-0.60;99.90;;;;;;5066728;28;20485;-56
2022/11/19 02:27:37;;;;;;;7.80;4.70;;;-0.60;99.90;;;;;;5068988;28;21000;-55
2022/11/19 02:30:09;;;;;;;6.90;4.57;;;-0.70;99.90;;;;;;5067628;28;20470;-57
2022/11/19 02:32:57;;;;;;;6.50;4.97;;;-0.70;99.90;;;;;;5069174;28;20484;-56
2022/11/19 02:35:44;;;;;;;6.33;5.40;;;-0.70;99.90;;;;;;5065440;28;20490;-56
2022/11/19 02:38:22;;;;;;;7.10;5.23;;;-0.60;99.90;;;;;;5069917;28;20471;-53
2022/11/19 02:40:55;;;;;;;5.90;5.00;;;-0.60;99.90;;;;;;5068539;28;21687;-54
2022/11/19 02:43:29;;;;;;;7.70;5.33;;;-0.50;99.90;;;;;;5069959;28;20488;-54
2022/11/19 02:46:04;;;;;;;7.23;5.40;;;-0.50;99.90;;;;;;5068413;28;20863;-57
2022/11/19 02:48:37;;;;;;;5.83;5.00;;;-0.60;99.90;;;;;;5069623;28;20457;-54
2022/11/19 02:51:06;;;;;;;6.07;4.93;;;-0.70;99.90;;;;;;5070187;28;20466;-55
2022/11/19 02:53:35;;;;;;;9.17;5.73;;;-0.60;99.90;;;;;;5069482;28;20889;-55
2022/11/19 02:56:12;;;;;;;9.20;6.03;;;-0.50;99.90;;;;;;5065108;28;20505;-56
2022/11/19 03:04:30;;;;;;;7.57;5.47;;;-0.70;99.90;;;;;;5070287;28;20512;-54
2022/11/19 03:07:02;;;;;;;7.30;5.60;;;-0.80;99.90;;;;;;5065529;28;20539;-55
2022/11/19 03:09:32;;;;;;;8.07;5.40;;;-0.80;99.90;;;;;;5068576;28;20871;-56
2022/11/19 03:12:09;;;;;;;7.27;5.57;;;-0.90;99.90;;;;;;5068826;28;20555;-55
2022/11/19 03:17:50;;;;;;;7.80;5.90;;;-0.60;99.90;;;;;;5067294;28;20483;-56
2022/11/19 03:20:25;;;;;;;7.20;5.67;;;-0.70;99.90;;;;;;5068778;28;20469;-55
2022/11/19 03:22:57;;;;;;;8.00;6.23;;;-0.80;99.90;;;;;;5067473;28;20843;-56
2022/11/19 03:25:28;;;;;;;6.63;4.90;;;-0.90;99.90;;;;;;5067153;28;20481;-55
2022/11/19 03:28:01;;;;;;;7.80;5.60;;;-0.90;99.90;;;;;;5067549;28;20469;-54
2022/11/19 03:31:04;;;;;;;7.07;5.53;;;-0.80;99.90;;;;;;5058555;28;20489;-55
2022/11/19 03:33:37;;;;;;;6.33;5.43;;;-0.90;99.90;;;;;;5068745;28;20477;-56
2022/11/19 03:36:10;;;;;;;6.13;5.10;;;-1.00;99.90;;;;;;5065431;28;20960;-55
2022/11/19 03:38:44;;;;;;;8.23;5.70;;;-1.00;99.90;;;;;;5067971;28;20529;-53
2022/11/19 03:41:15;;;;;;;6.97;5.33;;;-1.00;99.90;;;;;;5066055;28;20473;-56
2022/11/19 03:43:48;;;;;;;8.77;6.00;;;-1.10;99.90;;;;;;5066228;28;20559;-56
2022/11/19 03:46:19;;;;;;;8.67;5.80;;;-1.10;99.90;;;;;;5063694;28;20484;-57
2022/11/19 03:48:52;;;;;;;10.30;6.70;;;-1.10;99.90;;;;;;5065952;28;20457;-56
2022/11/19 03:51:24;;;;;;;9.70;6.10;;;-1.10;99.90;;;;;;5067036;28;20463;-56
2022/11/19 03:53:53;;;;;;;8.73;6.30;;;-1.10;99.90;;;;;;5066474;28;20481;-55
2022/11/19 03:56:25;;;;;;;12.07;6.53;;;-1.20;99.90;;;;;;5065687;28;20497;-55
2022/11/19 03:58:53;;;;;;;9.67;6.93;;;-1.00;99.90;;;;;;5065156;28;20477;-53
2022/11/19 04:01:22;;;;;;;8.27;6.27;;;-1.10;99.90;;;;;;5068883;28;21115;-55
2022/11/19 04:06:33;;;;;;;7.70;5.33;;;-1.10;99.90;;;;;;5068067;28;20376;-56
2022/11/19 04:09:01;;;;;;;9.33;6.63;;;-0.90;99.90;;;;;;5070163;28;21055;-53
2022/11/19 04:11:29;;;;;;;9.07;6.77;;;-1.00;99.90;;;;;;5070636;28;20462;-56
2022/11/19 04:13:57;;;;;;;8.67;6.70;;;-1.10;99.90;;;;;;5067575;28;21031;-55
2022/11/19 04:16:26;;;;;;;9.47;6.20;;;-1.00;99.90;;;;;;5066654;28;20487;-55
2022/11/19 04:18:55;;;;;;;8.87;6.37;;;-1.10;99.90;;;;;;5068452;28;20469;-54
2022/11/19 04:21:23;;;;;;;8.37;6.07;;;-1.10;99.90;;;;;;5069417;28;20465;-55
2022/11/19 04:23:51;;;;;;;9.57;6.70;;;-1.20;99.90;;;;;;5068947;28;21302;-55
2022/11/19 04:26:19;;;;;;;11.03;7.63;;;-1.30;99.90;;;;;;5067360;28;20469;-56
2022/11/19 04:28:47;;;;;;;9.60;6.53;;;-1.30;99.90;;;;;;5065306;28;20465;-55
2022/11/19 04:31:15;;;;;;;10.27;6.90;;;-1.30;99.90;;;;;;5066367;28;20474;-54
2022/11/19 04:33:45;;;;;;;10.10;7.20;;;-1.20;99.90;;;;;;5067113;28;20803;-54
2022/11/19 04:36:14;;;;;;;9.43;6.77;;;-1.00;99.90;;;;;;5063998;28;20493;-56
2022/11/19 04:38:42;;;;;;;9.93;7.07;;;-1.00;99.90;;;;;;5065196;28;20458;-55
2022/11/19 04:41:10;;;;;;;10.70;7.73;;;-0.90;99.90;;;;;;5067271;28;20473;-55
2022/11/19 04:43:38;;;;;;;10.20;7.30;;;-1.10;99.90;;;;;;5064827;28;20482;-56
2022/11/19 04:46:06;;;;;;;8.30;6.47;;;-1.20;99.90;;;;;;5064190;28;20486;-55
2022/11/19 04:48:34;;;;;;;8.97;7.00;;;-1.00;99.90;;;;;;5066351;28;20503;-55
2022/11/19 04:51:02;;;;;;;8.97;6.73;;;-1.10;99.90;;;;;;5066468;28;20542;-56
2022/11/19 04:53:32;;;;;;;8.27;6.37;;;-1.20;99.90;;;;;;5068761;28;20791;-54
2022/11/19 04:56:00;;;;;;;10.87;6.67;;;-1.30;99.90;;;;;;5066873;28;20465;-56
2022/11/19 04:58:28;;;;;;;12.37;7.10;;;-1.30;99.90;;;;;;5066823;28;20466;-57
2022/11/19 05:00:56;;;;;;;7.67;5.70;;;-1.30;99.90;;;;;;5065384;28;20514;-56
2022/11/19 05:03:24;;;;;;;7.97;5.70;;;-1.30;99.90;;;;;;5066519;28;21092;-54
2022/11/19 05:05:52;;;;;;;7.13;5.53;;;-1.40;99.90;;;;;;5062935;28;20481;-55
2022/11/19 05:08:20;;;;;;;8.40;6.17;;;-1.40;99.90;;;;;;5067128;28;20631;-56
2022/11/19 05:10:50;;;;;;;8.30;5.57;;;-1.40;99.90;;;;;;5066765;28;20481;-56
2022/11/19 05:13:18;;;;;;;8.17;5.97;;;-1.30;99.90;;;;;;5069215;28;21126;-56
2022/11/19 05:15:46;;;;;;;8.77;5.67;;;-1.40;99.90;;;;;;5066457;28;20470;-54
2022/11/19 05:18:14;;;;;;;7.67;6.33;;;-1.20;99.90;;;;;;5066513;28;20514;-56
2022/11/19 05:20:42;;;;;;;8.57;6.03;;;-1.20;99.90;;;;;;5067247;28;20981;-55
2022/11/19 05:23:11;;;;;;;7.60;5.73;;;-1.40;99.90;;;;;;5067313;28;20481;-56
2022/11/19 05:25:39;;;;;;;8.37;6.00;;;-1.40;99.90;;;;;;5065715;28;20528;-55
2022/11/19 05:28:09;;;;;;;6.20;4.60;;;-1.50;99.90;;;;;;5066969;28;20470;-54
2022/11/19 05:30:37;;;;;;;9.87;5.43;;;-1.30;99.90;;;;;;5066469;28;20473;-56
2022/11/19 05:33:05;;;;;;;8.00;5.87;;;-1.10;99.90;;;;;;5067163;28;20483;-55
2022/11/19 05:35:33;;;;;;;8.27;5.87;;;-1.30;99.90;;;;;;5066084;28;20592;-55
2022/11/19 05:38:01;;;;;;;9.83;5.77;;;-1.20;99.90;;;;;;5065894;28;20493;-53
2022/11/19 05:40:29;;;;;;;7.20;4.87;;;-1.40;99.90;;;;;;5066274;28;20496;-55
2022/11/19 05:43:04;;;;;;;7.37;5.33;;;-1.30;99.90;;;;;;5067582;28;20470;-55
2022/11/19 05:45:34;;;;;;;8.90;6.10;;;-1.40;99.90;;;;;;5065482;28;20472;-54
2022/11/19 05:48:02;;;;;;;7.90;6.27;;;-1.40;99.90;;;;;;5066076;28;20871;-55
2022/11/19 05:50:30;;;;;;;8.80;5.80;;;-1.50;99.90;;;;;;5066857;28;20471;-54
2022/11/19 05:52:58;;;;;;;9.23;5.87;;;-1.50;99.90;;;;;;5067764;28;20876;-55
2022/11/19 05:55:26;;;;;;;6.17;4.87;;;-1.50;99.90;;;;;;5064775;28;20981;-54
2022/11/19 05:57:54;;;;;;;6.87;5.30;;;-1.40;99.90;;;;;;5065529;28;21385;-56
2022/11/19 06:00:22;;;;;;;8.10;5.37;;;-1.40;99.90;;;;;;5068300;28;20478;-55
2022/11/19 06:02:52;;;;;;;7.73;5.43;;;-1.40;99.90;;;;;;5069392;28;20579;-54
2022/11/19 06:05:20;;;;;;;13.10;8.17;;;-1.10;99.90;;;;;;5065740;28;20484;-55
2022/11/19 06:07:48;;;;;;;12.87;8.40;;;-1.10;99.90;;;;;;5065771;28;20473;-56
2022/11/19 06:10:16;;;;;;;14.17;8.77;;;-1.10;99.90;;;;;;5068079;28;20466;-56
2022/11/19 06:12:44;;;;;;;13.77;9.67;;;-1.10;99.90;;;;;;5067792;28;20468;-56
2022/11/19 06:15:13;;;;;;;13.10;7.77;;;-1.20;99.90;;;;;;5064875;28;20503;-56
2022/11/19 06:17:41;;;;;;;12.63;8.13;;;-1.00;99.90;;;;;;5066618;28;20488;-55
2022/11/19 06:20:11;;;;;;;11.70;7.27;;;-1.10;99.90;;;;;;5068500;28;20489;-55
2022/11/19 06:22:39;;;;;;;11.60;7.20;;;-1.10;99.90;;;;;;5067185;28;20957;-55
2022/11/19 06:25:08;;;;;;;10.30;7.17;;;-1.20;99.90;;;;;;5065474;28;20470;-55
2022/11/19 06:27:36;;;;;;;8.10;6.27;;;-1.10;99.90;;;;;;5067223;28;20470;-56
2022/11/19 06:30:05;;;;;;;11.33;7.40;;;-0.80;99.90;;;;;;5064458;28;20482;-56
2022/11/19 06:32:33;;;;;;;8.57;6.50;;;-0.90;99.90;;;;;;5064697;28;20478;-56
2022/11/19 06:35:02;;;;;;;11.43;7.87;;;-0.90;99.90;;;;;;5064127;28;20482;-53
2022/11/19 06:37:31;;;;;;;9.03;6.20;;;-0.90;99.90;;;;;;5066911;28;20497;-56
2022/11/19 06:39:59;;;;;;;9.40;7.07;;;-0.80;99.90;;;;;;5065750;28;21116;-55
2022/11/19 06:42:36;;;;;;;7.73;6.30;;;-0.90;99.90;;;;;;5064881;28;20470;-54
2022/11/19 06:45:06;;;;;;;6.70;5.63;;;-0.90;99.90;;;;;;5065096;28;20470;-55
2022/11/19 06:47:35;;;;;;;7.97;6.00;;;-0.60;99.90;;;;;;5065802;28;20470;-56
2022/11/19 06:50:03;;;;;;;8.57;6.53;;;-0.90;99.90;;;;;;5064647;28;20465;-56
2022/11/19 06:52:33;;;;;;;9.83;6.63;;;-0.90;99.90;;;;;;5067001;28;20469;-55
2022/11/19 06:55:01;;;;;;;7.10;5.63;;;-1.00;99.90;;;;;;5064846;28;20485;-56
2022/11/19 06:57:29;;;;;;;7.40;6.10;;;-0.90;99.90;;;;;;5067582;28;20500;-54
2022/11/19 06:59:57;;;;;;;7.33;5.63;;;-1.00;99.90;;;;;;5071128;28;21143;-54
2022/11/19 07:02:25;;;;;;;7.10;6.20;;;-0.90;99.90;;;;;;5068508;28;21001;-54
2022/11/19 07:04:53;;;;;;;8.17;5.73;;;-1.00;99.90;;;;;;5069263;28;20485;-55
2022/11/19 07:07:21;;;;;;;9.07;6.60;;;-0.90;99.90;;;;;;5069893;28;20535;-56
2022/11/19 07:09:50;;;;;;;8.53;6.03;;;-0.90;99.90;;;;;;5069703;28;20477;-55
2022/11/19 07:12:18;;;;;;;7.57;6.47;;;-0.90;99.90;;;;;;5065580;28;20481;-55
2022/11/19 07:14:46;;;;;;;9.50;6.83;;;-0.90;99.90;;;;;;5063630;28;20466;-55
2022/11/19 07:17:14;;;;;;;9.93;7.13;;;-0.90;99.90;;;;;;5065618;28;21398;-54
2022/11/19 07:19:42;;;;;;;9.03;6.67;;;-1.00;99.90;;;;;;5065595;28;20489;-56
2022/11/19 07:22:13;;;;;;;8.73;6.53;;;-0.80;99.90;;;;;;5064540;28;20511;-55
2022/11/19 07:24:41;;;;;;;8.90;7.00;;;-0.80;99.90;;;;;;5066379;28;20470;-56
2022/11/19 07:27:10;;;;;;;10.43;7.23;;;-0.80;99.90;;;;;;5069323;28;20484;-56
2022/11/19 07:29:38;;;;;;;11.70;8.30;;;-0.70;99.90;;;;;;5067974;28;21121;-56
2022/11/19 07:32:06;;;;;;;11.17;8.93;;;-0.80;99.90;;;;;;5067715;28;20489;-53
2022/11/19 07:34:35;;;;;;;10.87;8.50;;;-0.80;99.90;;;;;;5069119;28;20828;-55
2022/11/19 07:37:03;;;;;;;11.10;7.30;;;-0.90;99.90;;;;;;5066778;28;20469;-56
2022/11/19 07:39:31;;;;;;;13.43;8.80;;;-0.90;99.90;;;;;;5069566;28;20488;-57
2022/11/19 07:44:46;;;;;;;9.73;7.07;;;-0.80;99.90;;;;;;5064718;28;20464;-55
2022/11/19 07:47:21;;;;;;;14.03;10.73;;;-0.60;99.90;;;;;;5069133;28;20508;-54
2022/11/19 07:49:50;;;;;;;13.73;10.13;;;-0.50;99.90;;;;;;5066833;28;20920;-54
2022/11/19 07:52:18;;;;;;;12.47;9.60;;;-0.70;99.90;;;;;;5067878;28;20549;-55
2022/11/19 07:54:46;;;;;;;12.20;9.17;;;-0.70;99.90;;;;;;5064171;28;20457;-56
2022/11/19 07:57:14;;;;;;;10.57;7.27;;;-0.70;99.90;;;;;;5067452;28;20470;-53
2022/11/19 07:59:42;;;;;;;11.53;8.10;;;-0.60;99.90;;;;;;5054980;28;20501;-56
2022/11/19 08:02:12;;;;;;;12.00;8.67;;;-0.40;99.90;;;;;;5057531;28;20474;-55
2022/11/19 08:04:41;;;;;;;12.57;8.90;;;-0.20;99.90;;;;;;5057553;28;20576;-56
2022/11/19 08:07:09;;;;;;;12.67;9.13;;;0.00;99.90;;;;;;5058105;28;20459;-56
2022/11/19 08:09:37;;;;;;;11.83;8.93;;;0.10;99.90;;;;;;5056982;28;20454;-55
2022/11/19 08:12:08;;;;;;;9.40;8.40;;;0.10;99.90;;;;;;5057462;28;21024;-54
2022/11/19 08:14:38;;;;;;;12.07;8.47;;;0.20;99.90;;;;;;5058345;28;20501;-55
2022/11/19 08:19:55;;;;;;;9.97;7.73;;;0.30;99.90;;;;;;5055721;28;20493;-55
2022/11/19 08:22:23;;;;;;;10.37;8.10;;;0.30;99.90;;;;;;5054808;28;20489;-56
2022/11/19 08:24:51;;;;;;;10.43;8.20;;;0.20;99.90;;;;;;5054814;28;20489;-56
2022/11/19 08:27:20;;;;;;;10.50;7.87;;;0.40;99.90;;;;;;5055577;28;20475;-57
2022/11/19 08:29:48;;;;;;;8.47;7.30;;;0.50;99.90;;;;;;5054742;28;20477;-56
2022/11/19 08:32:16;;;;;;;10.17;7.27;;;0.50;99.90;;;;;;5054833;28;20504;-55
2022/11/19 08:34:44;;;;;;;9.33;6.30;;;0.50;99.90;;;;;;5054957;28;20501;-57
2022/11/19 08:37:13;;;;;;;10.90;7.93;;;0.50;99.90;;;;;;5054700;28;20853;-56
2022/11/19 08:39:41;;;;;;;10.07;7.30;;;0.70;99.90;;;;;;5054839;28;20482;-57
2022/11/19 08:44:55;;;;;;;12.27;9.07;;;0.90;99.90;;;;;;5053119;28;20466;-56
2022/11/19 08:47:23;;;;;;;9.90;7.93;;;0.80;99.90;;;;;;5052624;28;20505;-57
2022/11/19 08:49:51;;;;;;;12.37;7.73;;;0.90;99.90;;;;;;5052630;28;20471;-57
2022/11/19 08:52:20;;;;;;;13.53;7.97;;;1.00;99.90;;;;;;5052568;28;20467;-57
2022/11/19 08:54:48;;;;;;;10.13;8.10;;;0.90;99.90;;;;;;5052734;28;20845;-55
2022/11/19 08:57:16;;;;;;;10.60;8.43;;;1.10;99.90;;;;;;5052614;28;21014;-57
2022/11/19 08:59:46;;;;;;;12.23;8.57;;;1.30;99.90;;;;;;5052933;28;20902;-56
2022/11/19 09:02:14;;;;;;;11.70;9.60;;;1.40;99.90;;;;;;5051786;28;20474;-56
2022/11/19 09:04:42;;;;;;;16.27;13.37;;;1.30;99.90;;;;;;5056123;28;20470;-56
2022/11/19 09:07:10;;;;;;;13.60;12.03;;;1.50;99.90;;;;;;5056986;28;20541;-56
2022/11/19 09:09:40;;;;;;;15.53;12.80;;;1.60;99.90;;;;;;5056248;28;20463;-57
2022/11/19 09:12:09;;;;;;;15.50;11.10;;;1.90;99.90;;;;;;5057005;28;20478;-56
2022/11/19 09:14:37;;;;;;;10.97;8.90;;;1.90;99.90;;;;;;5058618;28;20466;-56
2022/11/19 09:17:05;;;;;;;11.77;9.50;;;2.10;99.90;;;;;;5055816;28;20486;-57
2022/11/19 09:19:33;;;;;;;10.70;9.00;;;2.20;99.90;;;;;;5059230;28;20497;-56
2022/11/19 09:22:01;;;;;;;11.87;8.80;;;2.30;99.90;;;;;;5056467;28;20830;-56
2022/11/19 09:24:29;;;;;;;12.57;8.60;;;2.40;99.90;;;;;;5055907;28;20493;-56
2022/11/19 09:26:58;;;;;;;11.30;8.33;;;2.60;99.90;;;;;;5055215;28;20474;-57
2022/11/19 09:29:29;;;;;;;11.70;8.37;;;2.80;99.90;;;;;;5055932;28;20873;-56
2022/11/19 09:31:57;;;;;;;10.63;9.50;;;3.30;99.90;;;;;;5054815;28;20474;-56
2022/11/19 09:34:25;;;;;;;10.27;8.57;;;3.50;99.90;;;;;;5055319;28;20471;-56
2022/11/19 09:36:53;;;;;;;11.50;8.97;;;3.90;99.90;;;;;;5064479;28;20474;-57
2022/11/19 09:39:21;;;;;;;9.60;8.43;;;3.90;99.90;;;;;;5055203;28;21001;-56
2022/11/19 09:41:55;;;;;;;11.60;8.27;;;3.80;99.90;;;;;;5055103;28;20516;-57
2022/11/19 09:44:46;;;;;;;8.70;7.13;;;3.80;99.90;;;;;;5060383;28;20461;-57
2022/11/19 09:47:27;;;;;;;10.00;7.50;;;3.90;99.90;;;;;;5066883;28;20507;-57
2022/11/19 09:50:03;;;;;;;8.17;7.10;;;3.90;99.90;;;;;;5063848;28;20469;-57
2022/11/19 09:52:37;;;;;;;8.97;6.90;;;4.00;99.90;;;;;;5057538;28;20473;-57
2022/11/19 09:55:06;;;;;;;8.20;6.80;;;4.10;99.90;;;;;;5055444;28;20948;-57
2022/11/19 09:57:42;;;;;;;7.53;6.40;;;4.20;99.90;;;;;;5054830;28;20473;-57
2022/11/19 10:00:17;;;;;;;8.10;6.57;;;4.30;99.90;;;;;;5067049;28;20840;-57
2022/11/19 10:02:45;;;;;;;7.43;6.10;;;4.40;99.90;;;;;;5054816;28;20460;-57
2022/11/19 10:05:15;;;;;;;8.23;5.93;;;4.60;99.90;;;;;;5054351;28;20499;-57
2022/11/19 10:07:53;;;;;;;6.93;6.23;;;4.80;99.90;;;;;;5053754;28;20476;-57
2022/11/19 10:10:34;;;;;;;8.13;6.07;;;5.00;99.90;;;;;;5053914;28;20516;-57
2022/11/19 10:13:19;;;;;;;6.43;5.70;;;5.20;99.90;;;;;;5056025;28;20540;-57
2022/11/19 10:16:12;;;;;;;7.93;6.00;;;5.50;99.90;;;;;;5053740;28;20466;-57
2022/11/19 10:18:49;;;;;;;10.50;9.40;;;6.20;99.90;;;;;;5053748;28;20470;-56
2022/11/19 10:21:25;;;;;;;16.37;14.50;;;6.20;99.90;;;;;;5057712;28;20470;-57
2022/11/19 10:23:59;;;;;;;14.37;12.87;;;6.10;99.90;;;;;;5072093;28;20471;-56
2022/11/19 10:26:34;;;;;;;15.17;13.27;;;5.90;99.90;;;;;;5074381;28;20468;-56
2022/11/19 10:29:10;;;;;;;12.97;11.67;;;5.60;99.90;;;;;;5074628;28;20473;-57
2022/11/19 10:31:45;;;;;;;13.93;11.13;;;5.50;99.90;;;;;;5049788;28;20473;-57
2022/11/19 10:34:19;;;;;;;27.87;11.30;;;5.60;99.90;;;;;;5017767;28;20489;-57
2022/11/19 10:36:54;;;;;;;18.67;10.43;;;5.80;99.90;;;;;;5016152;28;20438;-54
2022/11/19 10:39:27;;;;;;;10.10;6.83;;;5.80;99.90;;;;;;5016600;28;20592;-54
2022/11/19 10:41:59;;;;;;;7.70;4.90;;;6.00;99.90;;;;;;5016650;28;20463;-52
2022/11/19 10:44:38;;;;;;;8.90;5.20;;;5.70;99.90;;;;;;5042864;28;20804;-55
2022/11/19 10:47:14;;;;;;;5.40;4.57;;;5.80;99.90;;;;;;5041570;28;20517;-54
2022/11/19 10:49:44;;;;;;;4.80;4.03;;;5.90;99.90;;;;;;5027676;28;20462;-54
2022/11/19 10:52:25;;;;;;;4.37;3.77;;;5.80;99.90;;;;;;5028545;28;20826;-54
2022/11/19 10:54:59;;;;;;;5.28;4.28;;;5.50;99.90;;;;;;5041022;28;20437;-52
2022/11/19 10:57:31;;;;;;;5.03;4.20;;;5.40;99.90;;;;;;5035830;28;20690;-54
2022/11/19 11:00:01;;;;;;;5.33;4.37;;;5.30;99.90;;;;;;5039421;28;20493;-54
2022/11/19 11:02:42;;;;;;;5.23;4.53;;;5.20;99.90;;;;;;5042911;28;20881;-52
2022/11/19 11:05:12;;;;;;;6.07;4.70;;;5.10;99.90;;;;;;5035935;28;20505;-53
2022/11/19 11:07:52;;;;;;;5.23;4.73;;;5.20;99.90;;;;;;5035763;28;20486;-54
2022/11/19 11:10:37;;;;;;;5.77;4.47;;;5.20;99.90;;;;;;5036009;28;20961;-53
2022/11/19 11:16:07;;;;;;;5.30;4.60;;;5.60;99.90;;;;;;5050870;28;20957;-53
2022/11/19 11:18:39;;;;;;;4.80;4.30;;;5.80;99.90;;;;;;5054816;28;20504;-54
2022/11/19 11:21:11;;;;;;;5.00;4.40;;;5.80;99.90;;;;;;5047307;28;20488;-52
2022/11/19 11:23:49;;;;;;;6.03;4.67;;;5.80;99.90;;;;;;5055124;28;20458;-51
2022/11/19 11:26:23;;;;;;;6.13;4.70;;;5.60;99.90;;;;;;5055558;28;20238;-54
2022/11/19 11:28:57;;;;;;;6.80;4.63;;;5.70;99.90;;;;;;5055376;28;20481;-54
2022/11/19 11:31:31;;;;;;;6.03;4.57;;;5.60;99.90;;;;;;5048770;28;20485;-51
2022/11/19 11:34:02;;;;;;;6.03;5.40;;;5.60;99.90;;;;;;5053688;28;20470;-54
2022/11/19 11:36:32;;;;;;;5.87;4.77;;;5.50;99.90;;;;;;5055143;28;20397;-53
2022/11/19 11:39:02;;;;;;;5.97;5.17;;;5.30;99.90;;;;;;5055198;28;20478;-51
2022/11/19 11:41:36;;;;;;;7.77;5.83;;;5.30;99.90;;;;;;5041838;28;20497;-52
2022/11/19 11:44:27;;;;;;;7.40;5.53;;;5.30;99.90;;;;;;5042709;28;20490;-51
2022/11/19 11:46:58;;;;;;;8.03;5.50;;;5.30;99.90;;;;;;5053211;28;20828;-53
2022/11/19 11:49:30;;;;;;;8.97;5.87;;;5.40;99.90;;;;;;5054493;28;20473;-50
2022/11/19 11:52:05;;;;;;;6.17;5.20;;;5.50;99.90;;;;;;5046648;28;20477;-54
2022/11/19 11:54:34;;;;;;;6.83;5.03;;;5.60;99.90;;;;;;5054770;28;20821;-54
2022/11/19 11:57:15;;;;;;;6.90;4.90;;;5.70;99.90;;;;;;5054777;28;20278;-52
2022/11/19 11:59:44;;;;;;;7.00;4.97;;;5.50;99.90;;;;;;5054504;28;20457;-53
2022/11/19 12:02:21;;;;;;;6.53;4.67;;;5.50;99.90;;;;;;5044802;28;20921;-52
2022/11/19 12:04:51;;;;;;;7.80;5.13;;;5.60;99.90;;;;;;5074332;28;20971;-51
2022/11/19 12:07:57;;;;;;;6.17;4.73;;;5.70;99.90;;;;;;5074584;28;20469;-54
2022/11/19 12:10:34;;;;;;;6.37;4.40;;;5.80;99.90;;;;;;5074351;28;20230;-52
2022/11/19 12:13:23;;;;;;;6.50;4.70;;;5.70;99.90;;;;;;5060031;28;20535;-53
2022/11/19 12:15:58;;;;;;;7.03;5.07;;;5.60;99.90;;;;;;5054467;28;20481;-54
2022/11/19 12:18:37;;;;;;;6.40;4.20;;;5.60;99.90;;;;;;5054018;28;20492;-54
2022/11/19 12:21:10;;;;;;;5.20;4.40;;;5.50;99.90;;;;;;5053546;28;21000;-53
2022/11/19 12:24:02;;;;;;;7.10;4.17;;;5.30;99.90;;;;;;5053748;28;20547;-54
2022/11/19 12:26:38;;;;;;;5.17;4.37;;;5.30;99.90;;;;;;5067666;28;20468;-53
2022/11/19 12:29:18;;;;;;;5.53;4.00;;;5.30;99.90;;;;;;5054316;28;20608;-54
2022/11/19 12:32:00;;;;;;;4.53;3.93;;;5.30;99.90;;;;;;5054583;28;20481;-54
2022/11/19 12:35:00;;;;;;;4.20;3.70;;;5.30;99.90;;;;;;5054194;28;20473;-53
2022/11/19 12:37:45;;;;;;;4.43;3.93;;;5.30;99.90;;;;;;5053361;28;20522;-52
2022/11/19 12:40:24;;;;;;;5.50;3.63;;;5.20;99.90;;;;;;5053890;28;20486;-52
2022/11/19 12:43:01;;;;;;;5.73;3.93;;;5.20;99.90;;;;;;5055637;28;20480;-53
2022/11/19 12:45:38;;;;;;;6.63;4.10;;;5.20;99.90;;;;;;5050538;28;20828;-50
2022/11/19 12:48:41;;;;;;;6.03;3.87;;;5.20;99.90;;;;;;5053749;28;20480;-52
2022/11/19 12:51:20;;;;;;;5.53;4.07;;;5.30;99.90;;;;;;5045376;28;20548;-52
2022/11/19 12:54:13;;;;;;;4.80;4.00;;;5.30;99.90;;;;;;5053640;28;20471;-52
2022/11/19 12:56:54;;;;;;;4.43;3.50;;;5.40;99.90;;;;;;5052592;28;20914;-52
2022/11/19 12:59:42;;;;;;;5.20;3.40;;;5.30;99.90;;;;;;5051525;28;20477;-53
2022/11/19 13:02:20;;;;;;;3.77;3.23;;;5.30;99.90;;;;;;5046301;28;20480;-53
2022/11/19 13:04:55;;;;;;;4.53;2.87;;;5.40;99.90;;;;;;5073188;28;20976;-54
2022/11/19 13:07:29;;;;;;;3.90;3.00;;;5.30;99.90;;;;;;5073408;28;20464;-52
2022/11/19 13:10:05;;;;;;;2.63;2.43;;;5.20;99.90;;;;;;5073235;28;20469;-51
2022/11/19 13:12:38;;;;;;;3.40;2.53;;;5.20;99.90;;;;;;5072269;28;20472;-53
2022/11/19 13:15:14;;;;;;;3.23;2.43;;;5.00;99.90;;;;;;5053525;28;20534;-53
2022/11/19 13:17:46;;;;;;;3.50;2.50;;;5.00;99.90;;;;;;5053233;28;20977;-53
2022/11/19 13:20:22;;;;;;;2.87;2.43;;;5.00;99.90;;;;;;5063311;28;20469;-52
2022/11/19 13:22:53;;;;;;;3.77;2.60;;;5.00;99.90;;;;;;5070734;28;20532;-53
2022/11/19 13:25:25;;;;;;;4.63;2.60;;;5.10;99.90;;;;;;5073013;28;20514;-54
2022/11/19 13:27:55;;;;;;;2.30;2.10;;;5.10;99.90;;;;;;5073211;28;20464;-51
2022/11/19 13:30:26;;;;;;;2.50;2.13;;;5.00;99.90;;;;;;5066116;28;20458;-55
2022/11/19 13:33:02;;;;;;;3.43;2.10;;;5.10;99.90;;;;;;5052786;28;20477;-53
2022/11/19 13:35:37;;;;;;;3.43;2.10;;;5.00;99.90;;;;;;5052712;28;20469;-52
2022/11/19 13:38:16;;;;;;;3.90;2.70;;;5.00;99.90;;;;;;5053057;28;20474;-52
2022/11/19 13:40:51;;;;;;;3.73;1.90;;;5.00;99.90;;;;;;5052579;28;20973;-54
2022/11/19 13:46:18;;;;;;;2.17;1.97;;;4.80;99.90;;;;;;5052756;28;20470;-55